createdAt,value
2022-09-07T00:01:38.312Z,99470.50
2022-09-07T00:05:45.454Z,99488.31
2022-09-07T00:09:47.044Z,99484.56
2022-09-07T00:13:49.983Z,99481.63
2022-09-07T00:17:51.586Z,99483.97
2022-09-07T00:21:53.250Z,99485.81
2022-09-07T00:25:59.346Z,99500.81
2022-09-07T00:30:01.071Z,99500.31
2022-09-07T00:34:02.940Z,99496.69
2022-09-07T00:38:04.552Z,99490.69
2022-09-07T00:42:06.257Z,99489.88
2022-09-07T00:46:32.394Z,99494.34
2022-09-07T00:50:41.048Z,99484.81
2022-09-07T00:54:51.068Z,99497.97
2022-09-07T00:58:53.280Z,99486.78
2022-09-07T01:02:58.506Z,99469.81
2022-09-07T01:07:01.562Z,99478.81
2022-09-07T01:11:03.545Z,99490.38
2022-09-07T01:15:06.021Z,99473.16
2022-09-07T01:19:30.122Z,99481.59
2022-09-07T01:23:56.623Z,99465.53
2022-09-07T01:28:17.039Z,99423.78
2022-09-07T01:32:49.223Z,99421.75
2022-09-07T01:36:56.875Z,99433.56
2022-09-07T01:41:15.074Z,99421.25
2022-09-07T01:45:19.906Z,99458.78
2022-09-07T01:49:29.608Z,99504.38
2022-09-07T01:53:59.167Z,99545.47
2022-09-07T01:58:11.645Z,99549.94
2022-09-07T02:02:18.009Z,99561.94
2022-09-07T02:06:25.082Z,99563.59
2022-09-07T02:10:41.012Z,99589.25
2022-09-07T02:14:52.533Z,99682.97
2022-09-07T02:19:04.286Z,99642.72
2022-09-07T02:23:17.155Z,99636.06
2022-09-07T02:27:24.783Z,99611.06
2022-09-07T02:31:26.544Z,99586.88
2022-09-07T02:35:28.503Z,99573.25
2022-09-07T02:39:30.556Z,99573.88
2022-09-07T02:43:33.122Z,99568.50
2022-09-07T02:47:55.241Z,99543.06
2022-09-07T02:52:14.973Z,99482.75
2022-09-07T02:56:35.532Z,99455.47
2022-09-07T03:00:54.286Z,99460.84
2022-09-07T03:05:05.028Z,99451.97
2022-09-07T03:09:13.786Z,99437.00
2022-09-07T03:13:24.274Z,99418.72
2022-09-07T03:17:25.856Z,99403.72
2022-09-07T03:21:27.421Z,99412.09
2022-09-07T03:25:29.065Z,99426.03
2022-09-07T03:29:31.019Z,99421.28
2022-09-07T03:33:32.583Z,99413.16
2022-09-07T03:37:38.244Z,99401.66
2022-09-07T03:41:39.971Z,99409.41
2022-09-07T03:45:41.591Z,99417.97
2022-09-07T03:49:43.501Z,99413.75
2022-09-07T03:53:46.774Z,99425.53
2022-09-07T03:57:48.383Z,99437.28
2022-09-07T04:01:50.102Z,99436.75
2022-09-07T04:05:51.792Z,99437.91
2022-09-07T04:09:53.404Z,99439.25
2022-09-07T04:13:54.977Z,99444.53
2022-09-07T04:17:56.638Z,99454.84
2022-09-07T04:21:58.301Z,99466.72
2022-09-07T04:26:00.212Z,99460.81
2022-09-07T04:30:01.911Z,99464.44
2022-09-07T04:34:04.824Z,99463.00
2022-09-07T04:38:06.911Z,99462.19
2022-09-07T04:42:08.514Z,99470.94
2022-09-07T04:46:26.370Z,99486.63
2022-09-07T04:50:28.017Z,99466.06
2022-09-07T04:54:29.660Z,99483.16
2022-09-07T04:58:31.686Z,99485.81
2022-09-07T05:02:33.663Z,99499.00
2022-09-07T05:06:35.364Z,99499.06
2022-09-07T05:10:36.970Z,99500.09
2022-09-07T05:14:38.553Z,99500.91
2022-09-07T05:18:40.155Z,99505.34
2022-09-07T05:22:41.938Z,99507.50
2022-09-07T05:26:43.616Z,99502.78
2022-09-07T05:35:06.965Z,99509.47
2022-09-07T05:39:09.412Z,99513.09
2022-09-07T05:43:11.130Z,99517.00
2022-09-07T05:47:13.209Z,99521.44
2022-09-07T05:51:14.998Z,99509.47
2022-09-07T05:55:29.322Z,99512.50
2022-09-07T05:59:31.419Z,99521.59
2022-09-07T06:03:34.701Z,99509.84
2022-09-07T06:07:36.381Z,99518.09
2022-09-07T06:11:38.634Z,99529.72
2022-09-07T06:15:40.240Z,99525.19
2022-09-07T06:19:41.844Z,99514.47
2022-09-07T06:23:44.649Z,99522.16
2022-09-07T06:27:48.597Z,99518.66
2022-09-07T06:36:15.074Z,99524.25
2022-09-07T06:40:16.820Z,99524.91
2022-09-07T06:44:18.473Z,99528.00
2022-09-07T06:48:21.146Z,99530.00
2022-09-07T06:52:22.918Z,99535.28
2022-09-07T06:56:27.334Z,99535.50
2022-09-07T07:00:29.041Z,99538.78
2022-09-07T07:04:30.832Z,99534.31
2022-09-07T07:08:33.166Z,99549.16
2022-09-07T07:16:38.304Z,99557.25
2022-09-07T07:20:41.924Z,99545.56
2022-09-07T07:24:43.545Z,99531.72
2022-09-07T07:29:03.997Z,99546.94
2022-09-07T07:33:08.199Z,99552.06
2022-09-07T07:37:09.840Z,99555.78
2022-09-07T07:50:30.838Z,99559.03
2022-09-07T07:54:39.277Z,99568.75
2022-09-07T07:58:45.500Z,99573.38
2022-09-07T08:02:47.082Z,99580.63
2022-09-07T08:06:49.152Z,99572.66
2022-09-07T08:10:51.211Z,99581.88
2022-09-07T08:14:54.125Z,99588.63
2022-09-07T08:18:55.763Z,99592.72
2022-09-07T08:22:57.288Z,99595.09
2022-09-07T08:26:59.240Z,99599.88
2022-09-07T08:31:04.682Z,99600.81
2022-09-07T08:35:07.361Z,99601.09
2022-09-07T08:39:08.891Z,99603.44
2022-09-07T08:43:13.198Z,99608.03
2022-09-07T08:47:20.210Z,99611.09
2022-09-07T08:51:33.997Z,99608.47
2022-09-07T08:55:58.657Z,99611.63
2022-09-07T09:00:20.606Z,99613.81
2022-09-07T09:04:26.889Z,99613.72
2022-09-07T09:08:58.489Z,99613.97
2022-09-07T09:13:19.796Z,99618.22
2022-09-07T09:17:44.645Z,99624.19
2022-09-07T09:21:46.338Z,99624.06
2022-09-07T09:25:54.028Z,99625.44
2022-09-07T09:29:55.575Z,99622.63
2022-09-07T09:34:05.830Z,99616.94
2022-09-07T09:38:29.402Z,99613.81
2022-09-07T09:42:34.467Z,99611.75
2022-09-07T09:46:37.663Z,99602.09
2022-09-07T09:55:33.122Z,99600.81
2022-09-07T10:07:56.984Z,99577.38
2022-09-07T10:12:08.574Z,99568.38
2022-09-07T10:16:11.792Z,99569.75
2022-09-07T10:20:16.123Z,99569.13
2022-09-07T10:24:27.879Z,99569.16
2022-09-07T10:33:10.344Z,99561.84
2022-09-07T10:37:24.958Z,99556.66
2022-09-07T10:41:43.346Z,99554.56
2022-09-07T10:45:54.024Z,99557.38
2022-09-07T10:50:30.072Z,99560.19
2022-09-07T10:54:52.692Z,99555.03
2022-09-07T10:59:15.537Z,99543.88
2022-09-07T11:03:53.170Z,99545.34
2022-09-07T11:08:21.605Z,99535.25
2022-09-07T11:12:30.812Z,99528.25
2022-09-07T11:16:55.216Z,99524.22
2022-09-07T11:21:01.108Z,99526.16
2022-09-07T11:25:35.365Z,99533.22
2022-09-07T11:29:47.216Z,99535.34
2022-09-07T11:38:28.459Z,99528.16
2022-09-07T11:42:44.584Z,99529.63
2022-09-07T11:47:14.151Z,99520.31
2022-09-07T11:51:26.535Z,99503.63
2022-09-07T11:55:34.287Z,99500.78
2022-09-07T11:59:47.451Z,99513.31
2022-09-07T12:04:24.822Z,99511.16
2022-09-07T12:08:47.330Z,99503.19
2022-09-07T12:13:10.788Z,99496.84
2022-09-07T12:17:40.268Z,99484.38
2022-09-07T12:21:53.879Z,99476.22
2022-09-07T12:26:33.642Z,99472.56
2022-09-07T12:30:35.253Z,99462.66
2022-09-07T12:34:39.286Z,99468.53
2022-09-07T12:39:19.996Z,99458.19
2022-09-07T12:43:21.533Z,99466.72
2022-09-07T12:47:28.148Z,99471.06
2022-09-07T12:56:17.993Z,99455.94
2022-09-07T13:00:36.084Z,99451.63
2022-09-07T13:05:13.180Z,99449.28
2022-09-07T13:09:34.623Z,99446.00
2022-09-07T13:17:58.303Z,99445.47
2022-09-07T13:22:00.041Z,99449.09
2022-09-07T13:26:04.560Z,99447.31
2022-09-07T13:30:15.129Z,99449.97
2022-09-07T13:34:35.053Z,99457.59
2022-09-07T13:38:36.908Z,99440.38
2022-09-07T13:42:38.914Z,99443.22
2022-09-07T13:47:00.090Z,99442.91
2022-09-07T13:51:25.057Z,99445.13
2022-09-07T13:55:38.830Z,99444.00
2022-09-07T13:59:42.625Z,99446.00
2022-09-07T14:04:07.627Z,99445.59
2022-09-07T14:08:26.635Z,99438.09
2022-09-07T14:12:30.702Z,99428.50
2022-09-07T14:16:33.539Z,99440.09
2022-09-07T14:20:42.011Z,99432.97
2022-09-07T14:24:49.371Z,99425.13
2022-09-07T14:28:53.472Z,99432.50
2022-09-07T14:33:03.282Z,99428.78
2022-09-07T14:37:12.640Z,99415.53
2022-09-07T14:41:17.715Z,99414.72
2022-09-07T14:45:22.303Z,99419.56
2022-09-07T14:49:24.350Z,99420.38
2022-09-07T14:53:41.210Z,99415.59
2022-09-07T14:57:42.749Z,99406.06
2022-09-07T15:01:44.640Z,99412.91
2022-09-07T15:05:48.263Z,99406.75
2022-09-07T15:09:49.854Z,99404.09
2022-09-07T15:13:57.457Z,99387.66
2022-09-07T15:18:08.204Z,99373.22
2022-09-07T15:22:11.619Z,99376.69
2022-09-07T15:30:37.581Z,99371.28
2022-09-07T15:34:39.229Z,99365.78
2022-09-07T15:43:13.665Z,99368.28
2022-09-07T15:56:03.501Z,99363.66
2022-09-07T16:00:06.578Z,99365.47
2022-09-07T16:04:15.623Z,99366.84
2022-09-07T16:08:25.848Z,99363.16
2022-09-07T16:21:12.828Z,99363.72
2022-09-07T16:25:14.596Z,99360.75
2022-09-07T16:29:17.674Z,99359.28
2022-09-07T16:33:23.872Z,99346.78
2022-09-07T16:37:30.619Z,99358.53
2022-09-07T16:41:33.396Z,99352.97
2022-09-07T16:49:56.497Z,99340.81
2022-09-07T16:53:58.976Z,99348.38
2022-09-07T17:02:22.040Z,99353.41
2022-09-07T17:06:26.266Z,99345.84
2022-09-07T17:10:28.750Z,99339.47
2022-09-07T17:14:30.433Z,99343.59
2022-09-07T17:22:54.995Z,99337.00
2022-09-07T17:26:59.720Z,99341.84
2022-09-07T17:32:23.743Z,99351.28
2022-09-07T17:35:37.881Z,99331.84
2022-09-07T17:39:39.478Z,99331.50
2022-09-07T17:43:45.407Z,99342.78
2022-09-07T17:47:49.611Z,99339.59
2022-09-07T17:51:51.140Z,99335.97
2022-09-07T17:55:52.681Z,99338.56
2022-09-07T18:00:11.131Z,99337.13
2022-09-07T18:04:14.501Z,99332.75
2022-09-07T18:08:16.031Z,99333.53
2022-09-07T18:12:17.680Z,99329.00
2022-09-07T18:16:22.708Z,99338.22
2022-09-07T18:20:25.907Z,99338.88
2022-09-07T18:24:27.844Z,99349.22
2022-09-07T18:32:55.472Z,99348.25
2022-09-07T18:36:58.249Z,99335.44
2022-09-07T18:41:11.831Z,99336.09
2022-09-07T18:45:29.087Z,99342.53
2022-09-07T18:49:30.742Z,99341.41
2022-09-07T18:53:33.247Z,99335.78
2022-09-07T18:57:36.325Z,99337.09
2022-09-07T19:01:38.517Z,99332.97
2022-09-07T19:05:55.928Z,99337.16
2022-09-07T19:09:58.182Z,99340.97
2022-09-07T19:14:04.453Z,99352.38
2022-09-07T19:18:07.880Z,99348.00
2022-09-07T19:22:09.413Z,99347.72
2022-09-07T19:26:11.043Z,99348.16
2022-09-07T19:30:12.778Z,99352.16
2022-09-07T19:34:14.500Z,99348.44
2022-09-07T19:38:16.158Z,99343.00
2022-09-07T19:42:17.735Z,99343.66
2022-09-07T19:46:24.635Z,99343.72
2022-09-07T19:50:31.074Z,99336.00
2022-09-07T19:54:33.958Z,99329.53
2022-09-07T19:58:36.437Z,99322.00
2022-09-07T20:02:37.970Z,99309.97
2022-09-07T20:06:39.864Z,99285.59
2022-09-07T20:10:41.854Z,99264.03
2022-09-07T20:14:43.504Z,99240.31
2022-09-07T20:18:45.948Z,99243.47
2022-09-07T20:22:47.983Z,99237.03
2022-09-07T20:26:49.641Z,99239.19
2022-09-07T20:30:51.266Z,99242.13
2022-09-07T20:34:53.147Z,99238.38
2022-09-07T20:38:56.201Z,99235.69
2022-09-07T20:42:58.812Z,99245.25
2022-09-07T20:47:00.936Z,99251.47
2022-09-07T20:51:09.303Z,99252.34
2022-09-07T20:55:10.899Z,99251.47
2022-09-07T20:59:12.532Z,99257.06
2022-09-07T21:03:14.731Z,99254.78
2022-09-07T21:07:16.318Z,99256.44
2022-09-07T21:11:29.530Z,99261.03
2022-09-07T21:15:31.162Z,99267.13
2022-09-07T21:19:32.788Z,99251.66
2022-09-07T21:23:36.424Z,99252.63
2022-09-07T21:27:38.765Z,99257.25
2022-09-07T21:31:40.552Z,99254.59
2022-09-07T21:35:42.163Z,99251.94
2022-09-07T21:39:43.911Z,99252.59
2022-09-07T21:43:45.644Z,99244.06
2022-09-07T21:47:47.263Z,99232.03
2022-09-07T21:51:48.970Z,99240.28
2022-09-07T21:55:58.127Z,99245.03
2022-09-07T21:59:59.668Z,99244.72
2022-09-07T22:04:03.966Z,99239.13
2022-09-07T22:08:05.560Z,99237.13
2022-09-07T22:12:07.648Z,99241.09
2022-09-07T22:16:09.994Z,99241.09
2022-09-07T22:20:12.068Z,99239.13
2022-09-07T22:24:15.254Z,99230.41
2022-09-07T22:28:16.884Z,99221.84
2022-09-07T22:32:18.501Z,99205.72
2022-09-07T22:36:23.198Z,99195.34
2022-09-07T22:40:24.732Z,99194.06
2022-09-07T22:44:27.588Z,99196.22
2022-09-07T22:48:29.186Z,99183.84
2022-09-07T22:52:30.817Z,99169.06
2022-09-07T22:56:33.779Z,99153.91
2022-09-07T23:00:36.452Z,99148.81
2022-09-07T23:04:38.095Z,99154.41
2022-09-07T23:08:39.934Z,99161.13
2022-09-07T23:12:41.456Z,99160.00
2022-09-07T23:16:43.816Z,99140.06
2022-09-07T23:20:46.363Z,99141.72
2022-09-07T23:24:47.891Z,99142.38
2022-09-07T23:28:54.215Z,99133.81
2022-09-07T23:32:55.801Z,99114.44
2022-09-07T23:36:57.361Z,99123.16
2022-09-07T23:41:00.035Z,99120.13
2022-09-07T23:45:01.582Z,99124.34
2022-09-07T23:49:03.321Z,99137.78
2022-09-07T23:53:04.987Z,99158.13
2022-09-07T23:57:06.538Z,99160.44
